createdAt,value
2023-03-18T00:03:49.712Z,11.46
2023-03-18T00:08:51.298Z,11.49
2023-03-18T00:13:52.753Z,11.45
2023-03-18T00:18:54.205Z,11.37
2023-03-18T00:23:57.048Z,11.34
2023-03-18T00:28:58.819Z,11.27
2023-03-18T00:34:00.546Z,11.24
2023-03-18T00:39:02.320Z,11.22
2023-03-18T00:44:04.451Z,11.28
2023-03-18T00:49:08.040Z,11.23
2023-03-18T00:54:12.736Z,11.21
2023-03-18T00:59:14.308Z,11.28
2023-03-18T01:04:16.111Z,11.18
2023-03-18T01:09:17.618Z,11.23
2023-03-18T01:14:19.447Z,11.20
2023-03-18T01:19:21.032Z,11.09
2023-03-18T01:24:23.968Z,11.03
2023-03-18T01:29:25.704Z,11.07
2023-03-18T01:34:27.202Z,10.94
2023-03-18T01:39:28.744Z,10.90
2023-03-18T01:44:30.523Z,10.86
2023-03-18T01:49:41.067Z,10.83
2023-03-18T01:55:02.299Z,10.86
2023-03-18T02:00:05.941Z,10.93
2023-03-18T02:05:20.009Z,11.01
2023-03-18T02:10:24.970Z,10.98
2023-03-18T02:15:30.091Z,10.88
2023-03-18T02:20:57.702Z,10.76
2023-03-18T02:26:08.031Z,10.67
2023-03-18T02:31:14.116Z,10.67
2023-03-18T02:36:24.815Z,10.78
2023-03-18T02:41:31.144Z,10.87
2023-03-18T02:46:41.330Z,10.73
2023-03-18T02:51:45.057Z,10.64
2023-03-18T02:56:46.639Z,10.68
2023-03-18T03:01:50.983Z,10.58
2023-03-18T03:06:57.154Z,10.60
2023-03-18T03:12:10.794Z,10.57
2023-03-18T03:17:18.496Z,10.46
2023-03-18T03:22:20.118Z,10.33
2023-03-18T03:27:22.707Z,10.32
2023-03-18T03:32:25.388Z,10.38
2023-03-18T03:37:26.993Z,10.32
2023-03-18T03:42:28.855Z,10.22
2023-03-18T03:47:30.312Z,10.17
2023-03-18T03:52:32.470Z,10.06
2023-03-18T03:57:34.783Z,10.19
2023-03-18T04:02:36.302Z,10.10
2023-03-18T04:07:38.745Z,9.94
2023-03-18T04:12:40.797Z,9.94
2023-03-18T04:17:42.579Z,10.03
2023-03-18T04:22:45.766Z,9.99
2023-03-18T04:27:48.051Z,10.03
2023-03-18T04:32:52.050Z,10.04
2023-03-18T04:37:53.807Z,9.98
2023-03-18T04:42:57.071Z,10.04
2023-03-18T04:48:01.179Z,9.90
2023-03-18T04:53:06.402Z,9.82
2023-03-18T04:58:08.364Z,9.62
2023-03-18T05:03:15.075Z,9.65
2023-03-18T05:08:16.830Z,9.40
2023-03-18T05:13:19.509Z,9.32
2023-03-18T05:18:22.063Z,9.13
2023-03-18T05:23:26.728Z,9.22
2023-03-18T05:28:30.587Z,9.39
2023-03-18T05:33:58.942Z,9.36
2023-03-18T05:39:03.200Z,9.20
2023-03-18T05:44:05.383Z,9.17
2023-03-18T05:49:10.897Z,9.00
2023-03-18T05:54:22.515Z,8.78
2023-03-18T05:59:24.228Z,8.54
2023-03-18T06:04:30.950Z,8.73
2023-03-18T06:09:32.801Z,8.84
2023-03-18T06:14:34.370Z,8.78
2023-03-18T06:19:38.104Z,9.24
2023-03-18T06:24:39.618Z,9.45
2023-03-18T06:29:41.199Z,9.62
2023-03-18T06:34:47.584Z,9.58
2023-03-18T06:39:49.317Z,9.31
2023-03-18T06:44:51.834Z,9.44
2023-03-18T06:49:59.338Z,9.50
2023-03-18T06:55:09.200Z,9.72
2023-03-18T07:00:14.312Z,9.84
2023-03-18T07:05:16.632Z,10.01
2023-03-18T07:10:24.761Z,10.16
2023-03-18T07:15:30.551Z,10.25
2023-03-18T07:20:33.532Z,10.44
2023-03-18T07:25:35.422Z,10.68
2023-03-18T07:30:37.065Z,10.67
2023-03-18T07:35:38.647Z,10.71
2023-03-18T07:40:40.196Z,11.05
2023-03-18T07:45:41.642Z,11.29
2023-03-18T07:50:44.172Z,11.65
2023-03-18T07:55:45.676Z,12.05
2023-03-18T08:00:47.358Z,12.19
2023-03-18T08:05:48.859Z,12.22
2023-03-18T08:10:50.877Z,12.49
2023-03-18T08:15:53.063Z,12.49
2023-03-18T08:20:54.544Z,12.75
2023-03-18T08:25:56.090Z,13.09
2023-03-18T08:30:58.326Z,13.26
2023-03-18T08:35:59.839Z,13.42
2023-03-18T08:41:01.665Z,13.47
2023-03-18T08:46:03.175Z,13.67
2023-03-18T08:51:05.968Z,14.03
2023-03-18T08:56:07.940Z,14.19
2023-03-18T09:01:11.841Z,14.44
2023-03-18T09:06:13.677Z,14.67
2023-03-18T09:11:15.169Z,14.89
2023-03-18T09:16:16.772Z,15.03
2023-03-18T09:21:18.347Z,15.42
2023-03-18T09:26:20.693Z,15.59
2023-03-18T09:31:22.241Z,15.72
2023-03-18T09:36:23.783Z,15.82
2023-03-18T09:42:13.942Z,16.22
2023-03-18T09:47:26.069Z,16.61
2023-03-18T09:52:35.316Z,16.67
2023-03-18T09:57:38.641Z,16.96
2023-03-18T10:02:51.272Z,17.00
2023-03-18T10:07:56.974Z,17.25
2023-03-18T10:13:12.538Z,17.52
2023-03-18T10:18:24.968Z,17.76
2023-03-18T10:23:26.402Z,18.01
2023-03-18T10:28:42.068Z,18.36
2023-03-18T10:33:50.327Z,18.40
2023-03-18T10:38:54.749Z,19.00
2023-03-18T10:43:57.494Z,20.41
2023-03-18T10:49:10.109Z,22.81
2023-03-18T10:54:29.595Z,23.17
2023-03-18T10:59:31.105Z,22.23
2023-03-18T11:04:41.139Z,21.11
2023-03-18T11:09:42.662Z,20.42
2023-03-18T11:14:48.814Z,19.97
2023-03-18T11:20:03.293Z,19.60
2023-03-18T11:25:14.356Z,19.35
2023-03-18T11:30:38.038Z,19.22
2023-03-18T11:35:44.910Z,19.31
2023-03-18T11:40:47.150Z,19.47
2023-03-18T11:45:57.073Z,19.63
2023-03-18T11:51:20.499Z,19.82
2023-03-18T11:56:42.475Z,19.94
2023-03-18T12:02:17.955Z,19.93
2023-03-18T12:08:02.880Z,19.99
2023-03-18T12:13:21.758Z,19.87
2023-03-18T12:18:33.567Z,20.13
2023-03-18T12:24:03.829Z,20.23
2023-03-18T12:29:30.327Z,20.30
2023-03-18T12:34:43.669Z,20.43
2023-03-18T12:39:54.064Z,20.44
2023-03-18T12:45:03.748Z,20.73
2023-03-18T12:50:14.369Z,20.61
2023-03-18T12:55:21.705Z,20.49
2023-03-18T13:00:30.778Z,20.62
2023-03-18T13:05:40.042Z,20.80
2023-03-18T13:10:45.316Z,20.84
2023-03-18T13:15:51.022Z,20.85
2023-03-18T13:20:56.089Z,20.67
2023-03-18T13:26:29.517Z,20.81
2023-03-18T13:31:53.261Z,20.89
2023-03-18T13:37:10.264Z,20.87
2023-03-18T13:42:20.458Z,20.86
2023-03-18T13:47:23.585Z,20.80
2023-03-18T13:52:41.871Z,20.86
2023-03-18T13:57:54.026Z,21.04
2023-03-18T14:03:17.876Z,21.04
2023-03-18T14:08:37.856Z,21.00
2023-03-18T14:13:39.445Z,21.13
2023-03-18T14:18:41.080Z,20.87
2023-03-18T14:23:44.138Z,20.67
2023-03-18T14:29:08.250Z,20.68
2023-03-18T14:34:15.637Z,20.50
2023-03-18T14:39:38.877Z,20.42
2023-03-18T14:44:54.934Z,20.20
2023-03-18T14:50:03.817Z,19.96
2023-03-18T14:55:15.016Z,19.77
2023-03-18T15:00:18.799Z,19.84
2023-03-18T15:05:20.508Z,21.78
2023-03-18T15:10:25.137Z,22.76
2023-03-18T15:15:27.009Z,22.78
2023-03-18T15:20:29.609Z,22.76
2023-03-18T15:25:31.384Z,23.15
2023-03-18T15:30:34.001Z,23.14
2023-03-18T15:35:37.774Z,22.66
2023-03-18T15:40:48.230Z,22.04
2023-03-18T15:45:55.906Z,21.29
2023-03-18T15:51:00.984Z,20.62
2023-03-18T15:56:43.513Z,20.60
2023-03-18T16:01:45.523Z,20.79
2023-03-18T16:06:47.178Z,20.73
2023-03-18T16:12:17.120Z,20.39
2023-03-18T16:17:21.840Z,19.99
2023-03-18T16:22:23.703Z,19.79
2023-03-18T16:27:38.896Z,19.43
2023-03-18T16:32:40.353Z,19.14
2023-03-18T16:37:43.576Z,18.91
2023-03-18T16:42:45.704Z,18.65
2023-03-18T16:47:49.797Z,18.50
2023-03-18T16:52:51.334Z,18.41
2023-03-18T16:57:55.389Z,18.41
2023-03-18T17:02:57.507Z,18.21
2023-03-18T17:07:58.991Z,18.18
2023-03-18T17:13:04.269Z,18.10
2023-03-18T17:18:07.333Z,17.97
2023-03-18T17:23:15.215Z,17.79
2023-03-18T17:28:40.489Z,17.41
2023-03-18T17:33:42.792Z,17.31
2023-03-18T17:38:44.317Z,17.16
2023-03-18T17:43:46.256Z,17.00
2023-03-18T17:48:47.780Z,17.09
2023-03-18T17:53:53.481Z,16.98
2023-03-18T17:58:55.013Z,16.96
2023-03-18T18:03:58.984Z,16.76
2023-03-18T18:09:00.914Z,16.58
2023-03-18T18:14:24.466Z,16.57
2023-03-18T18:19:26.095Z,16.36
2023-03-18T18:24:31.567Z,16.15
2023-03-18T18:29:35.021Z,16.19
2023-03-18T18:34:36.687Z,16.16
2023-03-18T18:39:38.179Z,16.13
2023-03-18T18:44:39.653Z,16.15
2023-03-18T18:49:41.174Z,16.00
2023-03-18T18:54:42.671Z,15.94
2023-03-18T18:59:44.182Z,15.84
2023-03-18T19:04:45.633Z,15.76
2023-03-18T19:09:47.108Z,15.93
2023-03-18T19:14:48.597Z,15.76
2023-03-18T19:19:51.879Z,15.68
2023-03-18T19:24:53.651Z,15.38
2023-03-18T19:30:00.548Z,15.45
2023-03-18T19:35:02.072Z,15.51
2023-03-18T19:40:15.463Z,15.43
2023-03-18T19:45:17.002Z,15.51
2023-03-18T19:50:21.072Z,15.35
2023-03-18T19:55:22.784Z,15.28
2023-03-18T20:00:25.739Z,15.26
2023-03-18T20:05:27.306Z,15.23
2023-03-18T20:10:28.799Z,15.14
2023-03-18T20:15:30.450Z,14.99
2023-03-18T20:20:33.090Z,15.12
2023-03-18T20:25:37.255Z,15.01
2023-03-18T20:30:40.385Z,14.94
2023-03-18T20:35:44.083Z,14.98
2023-03-18T20:40:45.808Z,15.03
2023-03-18T20:45:47.493Z,15.06
2023-03-18T20:50:50.011Z,14.95
2023-03-18T20:55:51.839Z,14.98
2023-03-18T21:00:54.165Z,15.05
2023-03-18T21:05:57.833Z,15.10
2023-03-18T21:11:02.014Z,14.97
2023-03-18T21:16:06.552Z,14.98
2023-03-18T21:21:23.348Z,14.80
2023-03-18T21:26:25.158Z,14.76
2023-03-18T21:31:29.589Z,14.67
2023-03-18T21:36:31.028Z,14.60
2023-03-18T21:41:33.558Z,14.58
2023-03-18T21:46:35.078Z,14.45
2023-03-18T21:51:39.954Z,14.53
2023-03-18T21:56:41.750Z,14.51
2023-03-18T22:01:43.347Z,14.58
2023-03-18T22:06:44.880Z,14.62
2023-03-18T22:11:46.391Z,14.51
2023-03-18T22:16:47.917Z,14.34
2023-03-18T22:21:49.444Z,14.30
2023-03-18T22:26:50.954Z,14.51
2023-03-18T22:31:52.510Z,14.33
2023-03-18T22:36:53.965Z,14.20
2023-03-18T22:41:55.511Z,14.18
2023-03-18T22:46:57.099Z,14.22
2023-03-18T22:51:58.650Z,14.15
2023-03-18T22:57:00.118Z,13.97
2023-03-18T23:02:01.632Z,14.18
2023-03-18T23:07:03.209Z,14.21
2023-03-18T23:12:04.859Z,13.98
2023-03-18T23:17:06.480Z,14.00
2023-03-18T23:22:10.716Z,13.96
2023-03-18T23:27:12.227Z,13.97
2023-03-18T23:32:14.970Z,13.88
2023-03-18T23:37:16.479Z,13.74
2023-03-18T23:42:19.839Z,13.70
2023-03-18T23:47:21.393Z,13.56
2023-03-18T23:52:22.920Z,13.49
2023-03-18T23:57:24.469Z,13.54
